This is the latest recevied weather packets stored in our database for station/object EA5JMY-10. If no packets are shown the sender has not sent any weather packets the latest 10 day(s).
| Time | Temp. | Humidity | Pressure | Rain* | Wind** | Luminosity | Snow |
|---|---|---|---|---|---|---|---|
| 1788075575 | 38.33° C | 27% | 1019.2 hPa | - | - | - | - |
| 1788074675 | 40.56° C | 24% | 1019.1 hPa | - | - | - | - |
| 1788073775 | 38.89° C | 24% | 1019 hPa | - | - | - | - |
| 1788072875 | 39.44° C | 24% | 1018.9 hPa | - | - | - | - |
| 1788071975 | 37.22° C | 25% | 1018.8 hPa | - | - | - | - |
| 1788071074 | 35° C | 30% | 1018.7 hPa | - | - | - | - |
| 1788070174 | 32.78° C | 33% | 1018.6 hPa | - | - | - | - |
| 1788069274 | 28.33° C | 42% | 1018.6 hPa | - | - | - | - |
| 1788068374 | 24.44° C | 54% | 1018.6 hPa | - | - | - | - |
| 1788067474 | 21.67° C | 61% | 1018.5 hPa | - | - | - | - |
| 1788066574 | 21.11° C | 63% | 1018.6 hPa | - | - | - | - |
| 1788065674 | 21.67° C | 62% | 1018.5 hPa | - | - | - | - |
| 1788064774 | 21.11° C | 62% | 1018.5 hPa | - | - | - | - |
| 1788063874 | 21.67° C | 61% | 1018.5 hPa | - | - | - | - |
| 1788062974 | 21.67° C | 60% | 1018.4 hPa | - | - | - | - |
| 1788062073 | 22.78° C | 58% | 1018.2 hPa | - | - | - | - |
| 1788061173 | 23.89° C | 55% | 1018.2 hPa | - | - | - | - |
| 1788060273 | 22.22° C | 61% | 1018.2 hPa | - | - | - | - |
| 1788059373 | 22.22° C | 60% | 1018.3 hPa | - | - | - | - |
| 1788058474 | 22.22° C | 62% | 1018.4 hPa | - | - | - | - |
| 1788057573 | 22.22° C | 59% | 1018.5 hPa | - | - | - | - |
| 1788056673 | 22.78° C | 58% | 1018.5 hPa | - | - | - | - |
| 1788055773 | 23.33° C | 56% | 1018.5 hPa | - | - | - | - |
| 1788054873 | 24.44° C | 52% | 1018.6 hPa | - | - | - | - |
| 1788053972 | 23.89° C | 53% | 1018.7 hPa | - | - | - | - |
* Rain since midnight (hover to see other rain measurements)
** Current wind speed in m/s (hover to see current wind gust speed)